createdAt,value
2023-05-17T00:00:56.489Z,23.82
2023-05-17T00:01:56.565Z,23.82
2023-05-17T00:02:56.638Z,23.82
2023-05-17T00:03:56.686Z,23.81
2023-05-17T00:04:56.722Z,23.79
2023-05-17T00:05:56.839Z,23.73
2023-05-17T00:06:56.854Z,23.70
2023-05-17T00:07:56.935Z,23.68
2023-05-17T00:08:57.157Z,23.66
2023-05-17T00:09:57.044Z,23.64
2023-05-17T00:10:57.131Z,23.64
2023-05-17T00:11:57.218Z,23.64
2023-05-17T00:12:57.264Z,23.63
2023-05-17T00:13:57.361Z,23.64
2023-05-17T00:14:57.431Z,23.64
2023-05-17T00:15:57.535Z,23.65
2023-05-17T00:16:57.601Z,23.64
2023-05-17T00:17:57.780Z,23.65
2023-05-17T00:18:57.789Z,23.66
2023-05-17T00:19:57.822Z,23.66
2023-05-17T00:20:57.868Z,23.66
2023-05-17T00:21:57.934Z,23.66
2023-05-17T00:22:57.980Z,23.67
2023-05-17T00:23:58.065Z,23.68
2023-05-17T00:24:58.162Z,23.68
2023-05-17T00:25:58.195Z,23.68
2023-05-17T00:26:58.273Z,23.70
2023-05-17T00:27:58.301Z,23.69
2023-05-17T00:28:58.417Z,23.70
2023-05-17T00:29:58.480Z,23.71
2023-05-17T00:30:58.545Z,23.72
2023-05-17T00:31:58.626Z,23.72
2023-05-17T00:32:58.783Z,23.73
2023-05-17T00:33:58.781Z,23.74
2023-05-17T00:34:58.861Z,23.75
2023-05-17T00:35:58.929Z,23.75
2023-05-17T00:36:58.969Z,23.76
2023-05-17T00:37:59.028Z,23.77
2023-05-17T00:38:59.117Z,23.76
2023-05-17T00:39:59.167Z,23.77
2023-05-17T00:40:59.319Z,23.77
2023-05-17T00:41:59.296Z,23.78
2023-05-17T00:42:59.390Z,23.79
2023-05-17T00:43:59.452Z,23.78
2023-05-17T00:44:59.510Z,23.78
2023-05-17T00:45:59.585Z,23.78
2023-05-17T00:46:59.625Z,23.78
2023-05-17T00:47:59.775Z,23.78
2023-05-17T00:48:59.758Z,23.78
2023-05-17T00:49:59.821Z,23.78
2023-05-17T00:50:59.894Z,23.78
2023-05-17T00:51:59.983Z,23.78
2023-05-17T00:52:59.998Z,23.78
2023-05-17T00:54:00.057Z,23.78
2023-05-17T00:55:00.188Z,23.78
2023-05-17T00:56:00.215Z,23.78
2023-05-17T00:57:00.401Z,23.79
2023-05-17T00:58:00.360Z,23.79
2023-05-17T00:59:00.426Z,23.79
2023-05-17T01:00:00.531Z,23.79
2023-05-17T01:01:00.629Z,23.80
2023-05-17T01:02:00.654Z,23.79
2023-05-17T01:03:00.873Z,23.79
2023-05-17T01:04:00.812Z,23.80
2023-05-17T01:05:00.935Z,23.80
2023-05-17T01:06:00.860Z,23.80
2023-05-17T01:07:00.931Z,23.80
2023-05-17T01:08:01.028Z,23.81
2023-05-17T01:09:01.072Z,23.81
2023-05-17T01:10:01.119Z,23.81
2023-05-17T01:11:01.230Z,23.81
2023-05-17T01:12:01.265Z,23.81
2023-05-17T01:13:01.379Z,23.81
2023-05-17T01:14:01.467Z,23.80
2023-05-17T01:15:01.448Z,23.79
2023-05-17T01:16:01.510Z,23.77
2023-05-17T01:17:01.593Z,23.76
2023-05-17T01:18:01.772Z,23.75
2023-05-17T01:19:01.848Z,23.71
2023-05-17T01:20:02.018Z,23.68
2023-05-17T01:21:01.881Z,23.64
2023-05-17T01:22:01.967Z,23.60
2023-05-17T01:23:02.036Z,23.57
2023-05-17T01:24:02.133Z,23.56
2023-05-17T01:25:02.241Z,23.56
2023-05-17T01:26:02.278Z,23.54
2023-05-17T01:27:02.379Z,23.55
2023-05-17T01:28:02.427Z,23.55
2023-05-17T01:29:02.613Z,23.56
2023-05-17T01:30:02.587Z,23.57
2023-05-17T01:31:02.629Z,23.58
2023-05-17T01:32:02.714Z,23.59
2023-05-17T01:33:02.880Z,23.60
2023-05-17T01:34:03.006Z,23.62
2023-05-17T01:35:02.970Z,23.62
2023-05-17T01:36:02.987Z,23.63
2023-05-17T01:37:03.058Z,23.64
2023-05-17T01:38:03.160Z,23.65
2023-05-17T01:39:03.257Z,23.65
2023-05-17T01:40:03.322Z,23.67
2023-05-17T01:41:03.390Z,23.68
2023-05-17T01:42:03.473Z,23.68
2023-05-17T01:43:03.545Z,23.69
2023-05-17T01:44:03.585Z,23.69
2023-05-17T01:45:03.736Z,23.69
2023-05-17T01:46:03.707Z,23.71
2023-05-17T01:47:03.787Z,23.70
2023-05-17T01:48:03.965Z,23.71
2023-05-17T01:49:03.975Z,23.71
2023-05-17T01:50:03.997Z,23.72
2023-05-17T01:51:04.071Z,23.73
2023-05-17T01:52:04.134Z,23.73
2023-05-17T01:53:04.198Z,23.73
2023-05-17T01:54:04.255Z,23.72
2023-05-17T01:55:04.347Z,23.73
2023-05-17T01:56:05.077Z,23.73
2023-05-17T01:57:04.482Z,23.73
2023-05-17T01:58:04.544Z,23.73
2023-05-17T01:59:04.589Z,23.73
2023-05-17T02:00:04.658Z,23.74
2023-05-17T02:01:04.952Z,23.74
2023-05-17T02:02:04.818Z,23.73
2023-05-17T02:03:04.926Z,23.73
2023-05-17T02:04:05.018Z,23.72
2023-05-17T02:05:05.093Z,23.73
2023-05-17T02:06:05.074Z,23.73
2023-05-17T02:07:05.159Z,23.73
2023-05-17T02:08:05.222Z,23.73
2023-05-17T02:09:05.307Z,23.72
2023-05-17T02:10:05.413Z,23.73
2023-05-17T02:11:05.408Z,23.73
2023-05-17T02:12:05.512Z,23.73
2023-05-17T02:13:05.585Z,23.73
2023-05-17T02:14:05.665Z,23.73
2023-05-17T02:15:05.694Z,23.74
2023-05-17T02:16:05.764Z,23.75
2023-05-17T02:17:06.071Z,23.74
2023-05-17T02:18:05.937Z,23.75
2023-05-17T02:19:06.014Z,23.75
2023-05-17T02:20:06.036Z,23.75
2023-05-17T02:21:06.089Z,23.75
2023-05-17T02:22:06.136Z,23.75
2023-05-17T02:23:06.249Z,23.75
2023-05-17T02:24:06.301Z,23.75
2023-05-17T02:25:06.381Z,23.75
2023-05-17T02:26:06.456Z,23.76
2023-05-17T02:27:06.568Z,23.76
2023-05-17T02:28:06.602Z,23.76
2023-05-17T02:29:06.661Z,23.77
2023-05-17T02:30:06.752Z,23.76
2023-05-17T02:31:06.773Z,23.76
2023-05-17T02:32:06.883Z,23.76
2023-05-17T02:33:07.094Z,23.75
2023-05-17T02:34:07.031Z,23.75
2023-05-17T02:35:07.103Z,23.74
2023-05-17T02:36:07.185Z,23.73
2023-05-17T02:37:07.244Z,23.73
2023-05-17T02:38:07.262Z,23.73
2023-05-17T02:39:07.350Z,23.72
2023-05-17T02:40:07.438Z,23.73
2023-05-17T02:41:07.496Z,23.71
2023-05-17T02:42:07.600Z,23.71
2023-05-17T02:43:07.662Z,23.70
2023-05-17T02:44:07.718Z,23.70
2023-05-17T02:45:07.831Z,23.68
2023-05-17T02:46:07.848Z,23.66
2023-05-17T02:47:07.908Z,23.66
2023-05-17T02:48:08.026Z,23.65
2023-05-17T02:49:08.335Z,23.65
2023-05-17T02:50:08.145Z,23.65
2023-05-17T02:51:08.226Z,23.65
2023-05-17T02:52:08.288Z,23.66
2023-05-17T02:53:08.386Z,23.65
2023-05-17T02:54:08.447Z,23.65
2023-05-17T02:55:08.516Z,23.64
2023-05-17T02:56:08.578Z,23.65
2023-05-17T02:57:08.673Z,23.65
2023-05-17T02:58:08.732Z,23.66
2023-05-17T02:59:08.804Z,23.66
2023-05-17T03:00:08.901Z,23.66
2023-05-17T03:01:08.982Z,23.67
2023-05-17T03:02:09.049Z,23.67
2023-05-17T03:03:09.164Z,23.68
2023-05-17T03:04:09.272Z,23.68
2023-05-17T03:05:09.372Z,23.69
2023-05-17T03:06:09.312Z,23.70
2023-05-17T03:07:09.387Z,23.69
2023-05-17T03:08:09.449Z,23.70
2023-05-17T03:09:09.536Z,23.69
2023-05-17T03:10:09.576Z,23.69
2023-05-17T03:11:09.677Z,23.69
2023-05-17T03:12:09.756Z,23.69
2023-05-17T03:13:09.784Z,23.69
2023-05-17T03:14:09.846Z,23.70
2023-05-17T03:15:09.911Z,23.70
2023-05-17T03:16:09.990Z,23.69
2023-05-17T03:17:10.099Z,23.69
2023-05-17T03:18:10.232Z,23.70
2023-05-17T03:19:10.349Z,23.70
2023-05-17T03:20:10.289Z,23.70
2023-05-17T03:21:10.525Z,23.69
2023-05-17T03:22:10.392Z,23.68
2023-05-17T03:23:10.467Z,23.68
2023-05-17T03:24:10.504Z,23.66
2023-05-17T03:25:10.606Z,23.66
2023-05-17T03:26:10.675Z,23.66
2023-05-17T03:27:10.721Z,23.65
2023-05-17T03:28:10.755Z,23.65
2023-05-17T03:29:10.847Z,23.65
2023-05-17T03:30:10.898Z,23.66
2023-05-17T03:31:11.030Z,23.65
2023-05-17T03:32:11.034Z,23.66
2023-05-17T03:33:11.200Z,23.66
2023-05-17T03:34:11.094Z,23.65
2023-05-17T03:35:11.168Z,23.65
2023-05-17T03:36:11.203Z,23.65
2023-05-17T03:37:11.322Z,23.64
2023-05-17T03:38:11.262Z,23.63
2023-05-17T03:39:11.336Z,23.62
2023-05-17T03:40:11.387Z,23.61
2023-05-17T03:41:11.384Z,23.60
2023-05-17T03:42:11.447Z,23.60
2023-05-17T03:43:11.461Z,23.60
2023-05-17T03:44:11.500Z,23.57
2023-05-17T03:45:11.558Z,23.58
2023-05-17T03:46:11.565Z,23.57
2023-05-17T03:47:11.559Z,23.57
2023-05-17T03:48:11.648Z,23.57
2023-05-17T03:49:11.617Z,23.57
2023-05-17T03:50:11.636Z,23.56
2023-05-17T03:51:11.651Z,23.57
2023-05-17T03:52:11.718Z,23.57
2023-05-17T03:53:11.883Z,23.59
2023-05-17T03:54:11.799Z,23.59
2023-05-17T03:55:12.194Z,23.60
2023-05-17T03:56:11.869Z,23.60
2023-05-17T03:57:11.925Z,23.58
2023-05-17T03:58:12.013Z,23.59
2023-05-17T03:59:12.044Z,23.60
2023-05-17T04:00:12.089Z,23.60
2023-05-17T04:01:12.115Z,23.60
2023-05-17T04:02:12.153Z,23.59
2023-05-17T04:03:12.196Z,23.59
2023-05-17T04:04:12.219Z,23.58
2023-05-17T04:05:12.241Z,23.58
2023-05-17T04:06:12.290Z,23.56
2023-05-17T04:07:12.322Z,23.56
2023-05-17T04:08:12.362Z,23.56
2023-05-17T04:09:12.602Z,23.56
2023-05-17T04:10:12.400Z,23.55
2023-05-17T04:11:12.441Z,23.56
2023-05-17T04:12:12.492Z,23.56
2023-05-17T04:13:12.569Z,23.56
2023-05-17T04:14:12.578Z,23.57
2023-05-17T04:15:12.637Z,23.56
2023-05-17T04:16:12.696Z,23.58
2023-05-17T04:17:13.109Z,23.58
2023-05-17T04:18:12.806Z,23.59
2023-05-17T04:19:12.936Z,23.60
2023-05-17T04:20:12.934Z,23.59
2023-05-17T04:21:12.990Z,23.59
2023-05-17T04:22:13.031Z,23.60
2023-05-17T04:23:13.047Z,23.60
2023-05-17T04:24:13.121Z,23.61
2023-05-17T04:25:13.337Z,23.61
2023-05-17T04:26:13.270Z,23.60
2023-05-17T04:27:13.367Z,23.60
2023-05-17T04:28:13.423Z,23.60
2023-05-17T04:29:13.492Z,23.61
2023-05-17T04:30:13.568Z,23.62
2023-05-17T04:31:13.613Z,23.62
2023-05-17T04:32:13.647Z,23.62
2023-05-17T04:33:14.518Z,23.63
2023-05-17T04:34:13.782Z,23.64
2023-05-17T04:35:13.805Z,23.64
2023-05-17T04:36:13.879Z,23.65
2023-05-17T04:37:13.918Z,23.65
2023-05-17T04:38:13.955Z,23.67
2023-05-17T04:39:14.026Z,23.67
2023-05-17T04:40:14.125Z,23.67
2023-05-17T04:41:14.299Z,23.66
2023-05-17T04:42:14.210Z,23.68
2023-05-17T04:43:14.310Z,23.68
2023-05-17T04:44:14.375Z,23.68
2023-05-17T04:45:15.637Z,23.70
2023-05-17T04:46:14.465Z,23.71
2023-05-17T04:47:14.538Z,23.72
2023-05-17T04:48:14.668Z,23.73
2023-05-17T04:49:14.677Z,23.73
2023-05-17T04:50:14.717Z,23.74
2023-05-17T04:51:14.827Z,23.74
2023-05-17T04:52:14.908Z,23.74
2023-05-17T04:53:15.053Z,23.75
2023-05-17T04:54:15.038Z,23.75
2023-05-17T04:55:15.176Z,23.76
2023-05-17T04:56:15.144Z,23.77
2023-05-17T04:57:15.253Z,23.78
2023-05-17T04:58:15.335Z,23.79
2023-05-17T04:59:15.398Z,23.79
2023-05-17T05:00:15.508Z,23.80
2023-05-17T05:01:22.731Z,23.80
2023-05-17T05:02:15.558Z,23.80
2023-05-17T05:03:15.753Z,23.80
2023-05-17T05:04:15.662Z,23.80
2023-05-17T05:05:15.570Z,23.81
2023-05-17T05:06:15.595Z,23.82
2023-05-17T05:07:15.601Z,23.82
2023-05-17T05:08:15.622Z,23.83
2023-05-17T05:09:15.649Z,23.83
2023-05-17T05:10:15.633Z,23.84
2023-05-17T05:11:15.696Z,23.85
2023-05-17T05:12:15.675Z,23.85
2023-05-17T05:13:15.746Z,23.86
2023-05-17T05:14:15.677Z,23.87
2023-05-17T05:15:15.722Z,23.87
2023-05-17T05:16:15.717Z,23.89
2023-05-17T05:17:15.751Z,23.90
2023-05-17T05:18:15.841Z,23.90
2023-05-17T05:19:15.828Z,23.91
2023-05-17T05:20:15.765Z,23.91
2023-05-17T05:21:15.769Z,23.92
2023-05-17T05:22:15.762Z,23.92
2023-05-17T05:23:15.841Z,23.91
2023-05-17T05:24:15.824Z,23.90
2023-05-17T05:25:15.820Z,23.91
2023-05-17T05:26:15.872Z,23.92
2023-05-17T05:27:15.952Z,23.93
2023-05-17T05:28:16.037Z,23.93
2023-05-17T05:29:16.051Z,23.93
2023-05-17T05:30:16.098Z,23.93
2023-05-17T05:31:16.252Z,23.94
2023-05-17T05:32:16.217Z,23.90
2023-05-17T05:33:16.625Z,23.81
2023-05-17T05:34:16.388Z,23.78
2023-05-17T05:35:16.501Z,23.76
2023-05-17T05:36:16.822Z,23.74
2023-05-17T05:37:18.001Z,23.70
2023-05-17T05:38:16.599Z,23.63
2023-05-17T05:39:16.624Z,23.59
2023-05-17T05:40:16.608Z,23.57
2023-05-17T05:41:16.756Z,23.52
2023-05-17T05:42:16.687Z,23.53
2023-05-17T05:43:16.697Z,23.52
2023-05-17T05:44:17.681Z,23.54
2023-05-17T05:45:23.927Z,23.55
2023-05-17T05:46:16.802Z,23.54
2023-05-17T05:47:16.755Z,23.53
2023-05-17T05:48:16.923Z,23.49
2023-05-17T05:49:16.837Z,23.45
2023-05-17T05:50:16.874Z,23.44
2023-05-17T05:51:16.799Z,23.38
2023-05-17T05:52:17.849Z,23.29
2023-05-17T05:53:19.500Z,23.18
2023-05-17T05:54:16.837Z,23.09
2023-05-17T05:55:16.915Z,23.00
2023-05-17T05:56:16.889Z,22.92
2023-05-17T05:57:16.920Z,22.84
2023-05-17T05:58:17.762Z,22.77
2023-05-17T05:59:16.919Z,22.70
2023-05-17T06:00:16.955Z,22.64
2023-05-17T06:01:17.037Z,22.57
2023-05-17T06:02:16.967Z,22.55
2023-05-17T06:03:17.036Z,22.54
2023-05-17T06:04:17.047Z,22.54
2023-05-17T06:05:17.091Z,22.50
2023-05-17T06:06:17.198Z,22.45
2023-05-17T06:07:17.251Z,22.42
2023-05-17T06:08:17.254Z,22.36
2023-05-17T06:09:17.157Z,22.32
2023-05-17T06:10:17.200Z,22.28
2023-05-17T06:11:17.279Z,22.25
2023-05-17T06:12:17.778Z,22.24
2023-05-17T06:13:17.408Z,22.24
2023-05-17T06:14:17.334Z,22.21
2023-05-17T06:15:17.362Z,22.20
2023-05-17T06:16:17.401Z,22.17
2023-05-17T06:17:17.493Z,22.16
2023-05-17T06:18:17.573Z,22.12
2023-05-17T06:19:17.560Z,22.11
2023-05-17T06:20:17.592Z,22.07
2023-05-17T06:21:17.536Z,22.04
2023-05-17T06:22:17.600Z,22.02
2023-05-17T06:23:17.630Z,22.01
2023-05-17T06:24:17.667Z,21.98
2023-05-17T06:25:17.711Z,21.98
2023-05-17T06:26:17.727Z,21.99
2023-05-17T06:27:17.767Z,22.02
2023-05-17T06:28:17.777Z,22.00
2023-05-17T06:29:17.877Z,21.94
2023-05-17T06:30:17.964Z,21.94
2023-05-17T06:31:19.163Z,21.94
2023-05-17T06:32:18.067Z,21.91
2023-05-17T06:33:18.192Z,21.87
2023-05-17T06:34:18.165Z,21.86
2023-05-17T06:35:18.156Z,21.86
2023-05-17T06:36:18.192Z,21.96
2023-05-17T06:37:18.265Z,22.07
2023-05-17T06:38:18.266Z,22.17
2023-05-17T06:39:18.331Z,22.22
2023-05-17T06:40:18.354Z,22.29
2023-05-17T06:41:18.365Z,22.35
2023-05-17T06:42:18.796Z,22.40
2023-05-17T06:43:18.451Z,22.41
2023-05-17T06:44:18.461Z,22.39
2023-05-17T06:45:18.500Z,22.32
2023-05-17T06:46:18.501Z,22.25
2023-05-17T06:47:18.625Z,22.18
2023-05-17T06:48:18.678Z,22.15
2023-05-17T06:49:18.603Z,22.16
2023-05-17T06:50:18.643Z,22.20
2023-05-17T06:51:18.668Z,22.24
2023-05-17T06:52:18.720Z,22.28
2023-05-17T06:53:18.739Z,22.32
2023-05-17T06:54:18.737Z,22.28
2023-05-17T06:55:18.854Z,22.29
2023-05-17T06:56:18.814Z,22.23
2023-05-17T06:57:18.928Z,22.16
2023-05-17T06:58:18.886Z,22.08
2023-05-17T06:59:18.910Z,22.01
2023-05-17T07:00:18.943Z,21.97
2023-05-17T07:01:18.929Z,21.91
2023-05-17T07:02:18.983Z,21.85
2023-05-17T07:03:19.185Z,21.85
2023-05-17T07:04:19.162Z,21.84
2023-05-17T07:05:19.203Z,21.85
2023-05-17T07:06:19.135Z,21.83
2023-05-17T07:07:19.160Z,21.79
2023-05-17T07:08:19.205Z,21.80
2023-05-17T07:09:19.229Z,21.77
2023-05-17T07:10:19.289Z,21.76
2023-05-17T07:11:19.318Z,21.73
2023-05-17T07:12:19.369Z,21.69
2023-05-17T07:13:19.359Z,21.69
2023-05-17T07:14:19.409Z,21.67
2023-05-17T07:15:19.468Z,21.65
2023-05-17T07:16:19.462Z,21.64
2023-05-17T07:17:19.548Z,21.65
2023-05-17T07:18:19.690Z,21.67
2023-05-17T07:19:19.634Z,21.70
2023-05-17T07:20:19.617Z,21.69
2023-05-17T07:21:19.772Z,21.65
2023-05-17T07:22:19.773Z,21.65
2023-05-17T07:23:19.736Z,21.65
2023-05-17T07:24:19.800Z,21.63
2023-05-17T07:25:19.819Z,21.65
2023-05-17T07:26:19.837Z,21.63
2023-05-17T07:27:19.920Z,21.61
2023-05-17T07:28:19.929Z,21.62
2023-05-17T07:29:20.020Z,21.64
2023-05-17T07:30:20.016Z,21.69
2023-05-17T07:31:20.066Z,21.78
2023-05-17T07:32:20.116Z,21.88
2023-05-17T07:33:20.175Z,21.93
2023-05-17T07:34:20.201Z,22.04
2023-05-17T07:35:21.686Z,22.14
2023-05-17T07:36:20.281Z,22.21
2023-05-17T07:37:20.303Z,22.23
2023-05-17T07:38:20.299Z,22.32
2023-05-17T07:39:20.344Z,22.37
2023-05-17T07:40:20.375Z,22.40
2023-05-17T07:41:20.433Z,22.41
2023-05-17T07:42:20.821Z,22.45
2023-05-17T07:43:20.542Z,22.50
2023-05-17T07:44:20.614Z,22.54
2023-05-17T07:45:20.707Z,22.57
2023-05-17T07:46:20.778Z,22.61
2023-05-17T07:47:20.858Z,22.64
2023-05-17T07:48:20.970Z,22.67
2023-05-17T07:49:21.096Z,22.69
2023-05-17T07:50:21.061Z,22.72
2023-05-17T07:51:21.080Z,22.76
2023-05-17T07:52:21.327Z,22.75
2023-05-17T07:53:21.371Z,22.81
2023-05-17T07:54:21.237Z,22.86
2023-05-17T07:55:21.294Z,22.92
2023-05-17T07:56:21.313Z,22.97
2023-05-17T07:57:21.346Z,23.02
2023-05-17T07:58:21.548Z,23.07
2023-05-17T07:59:21.440Z,23.10
2023-05-17T08:00:21.437Z,23.14
2023-05-17T08:01:21.452Z,23.19
2023-05-17T08:02:21.552Z,23.22
2023-05-17T08:03:21.627Z,23.24
2023-05-17T08:04:21.691Z,23.28
2023-05-17T08:05:21.710Z,23.32
2023-05-17T08:06:21.863Z,23.34
2023-05-17T08:07:21.859Z,23.36
2023-05-17T08:08:21.965Z,23.39
2023-05-17T08:09:22.054Z,23.41
2023-05-17T08:10:22.072Z,23.42
2023-05-17T08:11:22.165Z,23.41
2023-05-17T08:12:22.301Z,23.43
2023-05-17T08:13:22.342Z,23.45
2023-05-17T08:14:22.406Z,23.47
2023-05-17T08:15:22.476Z,23.49
2023-05-17T08:16:22.566Z,23.52
2023-05-17T08:17:22.861Z,23.54
2023-05-17T08:18:22.756Z,23.56
2023-05-17T08:19:22.867Z,23.58
2023-05-17T08:20:22.822Z,23.59
2023-05-17T08:21:22.861Z,23.61
2023-05-17T08:22:22.931Z,23.63
2023-05-17T08:23:23.022Z,23.65
2023-05-17T08:24:23.075Z,23.66
2023-05-17T08:25:23.143Z,23.67
2023-05-17T08:26:23.197Z,23.70
2023-05-17T08:27:23.364Z,23.71
2023-05-17T08:28:23.370Z,23.72
2023-05-17T08:29:23.378Z,23.74
2023-05-17T08:30:28.947Z,23.75
2023-05-17T08:31:24.484Z,23.77
2023-05-17T08:32:23.932Z,23.78
2023-05-17T08:33:23.598Z,23.77
2023-05-17T08:34:23.475Z,23.76
2023-05-17T08:35:24.963Z,23.73
2023-05-17T08:36:23.522Z,23.68
2023-05-17T08:37:23.886Z,23.66
2023-05-17T08:38:23.532Z,23.61
2023-05-17T08:39:23.575Z,23.59
2023-05-17T08:40:23.700Z,23.52
2023-05-17T08:41:23.708Z,23.49
2023-05-17T08:42:23.868Z,23.44
2023-05-17T08:43:25.265Z,23.38
2023-05-17T08:44:23.645Z,23.29
2023-05-17T08:45:23.685Z,23.23
2023-05-17T08:46:23.749Z,23.13
2023-05-17T08:47:23.779Z,23.04
2023-05-17T08:48:23.857Z,23.02
2023-05-17T08:49:23.821Z,23.01
2023-05-17T08:50:23.786Z,23.02
2023-05-17T08:51:23.811Z,23.05
2023-05-17T08:52:23.848Z,23.06
2023-05-17T08:53:24.447Z,23.04
2023-05-17T08:54:23.966Z,22.98
2023-05-17T08:55:23.893Z,22.94
2023-05-17T08:56:23.886Z,22.88
2023-05-17T08:57:23.947Z,22.83
2023-05-17T08:58:23.962Z,22.84
2023-05-17T08:59:24.003Z,22.84
2023-05-17T09:00:24.037Z,22.80
2023-05-17T09:01:25.488Z,22.74
2023-05-17T09:02:24.324Z,22.68
2023-05-17T09:03:24.398Z,22.62
2023-05-17T09:04:24.362Z,22.57
2023-05-17T09:05:25.389Z,22.59
2023-05-17T09:06:24.480Z,22.61
2023-05-17T09:07:24.562Z,22.62
2023-05-17T09:08:24.632Z,22.65
2023-05-17T09:09:24.679Z,22.68
2023-05-17T09:10:24.734Z,22.69
2023-05-17T09:11:24.806Z,22.73
2023-05-17T09:12:25.644Z,22.77
2023-05-17T09:13:25.002Z,22.78
2023-05-17T09:14:25.011Z,22.81
2023-05-17T09:15:25.101Z,22.84
2023-05-17T09:16:25.168Z,22.90
2023-05-17T09:17:25.323Z,22.94
2023-05-17T09:18:25.358Z,22.97
2023-05-17T09:19:25.311Z,23.01
2023-05-17T09:20:25.384Z,23.04
2023-05-17T09:21:25.394Z,23.07
2023-05-17T09:22:25.863Z,23.08
2023-05-17T09:23:25.480Z,23.07
2023-05-17T09:24:25.506Z,23.05
2023-05-17T09:25:25.574Z,23.05
2023-05-17T09:26:25.603Z,23.04
2023-05-17T09:27:25.680Z,23.04
2023-05-17T09:28:25.839Z,23.04
2023-05-17T09:29:25.782Z,23.03
2023-05-17T09:30:25.932Z,23.04
2023-05-17T09:31:25.883Z,23.05
2023-05-17T09:32:26.031Z,23.06
2023-05-17T09:33:26.106Z,23.07
2023-05-17T09:34:26.043Z,23.09
2023-05-17T09:35:26.212Z,23.09
2023-05-17T09:36:26.159Z,23.11
2023-05-17T09:37:26.392Z,23.13
2023-05-17T09:38:26.237Z,23.14
2023-05-17T09:39:26.306Z,23.14
2023-05-17T09:40:26.379Z,23.14
2023-05-17T09:41:26.425Z,23.12
2023-05-17T09:42:26.864Z,23.16
2023-05-17T09:43:26.509Z,23.17
2023-05-17T09:44:26.531Z,23.19
2023-05-17T09:45:27.165Z,23.17
2023-05-17T09:46:26.620Z,23.15
2023-05-17T09:47:26.727Z,23.11
2023-05-17T09:48:26.908Z,23.14
2023-05-17T09:49:26.797Z,23.15
2023-05-17T09:50:26.799Z,23.12
2023-05-17T09:51:26.854Z,23.12
2023-05-17T09:52:26.916Z,23.05
2023-05-17T09:53:26.996Z,23.11
2023-05-17T09:54:26.997Z,23.17
2023-05-17T09:55:27.235Z,23.20
2023-05-17T09:56:27.047Z,23.23
2023-05-17T09:57:27.079Z,23.21
2023-05-17T09:58:27.383Z,23.21
2023-05-17T09:59:27.204Z,23.22
2023-05-17T10:00:27.239Z,23.26
2023-05-17T10:01:27.290Z,23.30
2023-05-17T10:02:27.374Z,23.34
2023-05-17T10:03:27.363Z,23.39
2023-05-17T10:04:27.332Z,23.44
2023-05-17T10:05:27.617Z,23.46
2023-05-17T10:06:38.989Z,23.50
2023-05-17T10:07:28.479Z,23.54
2023-05-17T10:08:27.452Z,23.58
2023-05-17T10:09:27.481Z,23.62
2023-05-17T10:10:27.484Z,23.64
2023-05-17T10:11:27.489Z,23.68
2023-05-17T10:12:27.532Z,23.69
2023-05-17T10:13:27.861Z,23.73
2023-05-17T10:14:27.776Z,23.75
2023-05-17T10:15:27.780Z,23.76
2023-05-17T10:16:27.563Z,23.77
2023-05-17T10:17:27.658Z,23.77
2023-05-17T10:18:28.013Z,23.78
2023-05-17T10:19:27.874Z,23.79
2023-05-17T10:20:27.829Z,23.78
2023-05-17T10:21:28.889Z,23.80
2023-05-17T10:22:27.933Z,23.79
2023-05-17T10:23:28.040Z,23.80
2023-05-17T10:24:28.046Z,23.79
2023-05-17T10:25:28.393Z,23.80
2023-05-17T10:26:28.207Z,23.81
2023-05-17T10:27:28.283Z,23.81
2023-05-17T10:28:28.399Z,23.81
2023-05-17T10:29:28.465Z,23.79
2023-05-17T10:30:28.511Z,23.78
2023-05-17T10:31:28.550Z,23.77
2023-05-17T10:32:28.649Z,23.76
2023-05-17T10:33:28.810Z,23.71
2023-05-17T10:34:28.740Z,23.68
2023-05-17T10:35:28.908Z,23.63
2023-05-17T10:36:28.866Z,23.59
2023-05-17T10:37:28.928Z,23.57
2023-05-17T10:38:41.305Z,23.56
2023-05-17T10:39:29.981Z,23.55
2023-05-17T10:40:29.039Z,23.47
2023-05-17T10:41:29.041Z,23.45
2023-05-17T10:42:29.144Z,23.40
2023-05-17T10:43:29.375Z,23.36
2023-05-17T10:44:29.259Z,23.35
2023-05-17T10:45:29.443Z,23.33
2023-05-17T10:46:29.296Z,23.31
2023-05-17T10:47:29.436Z,23.26
2023-05-17T10:48:29.435Z,23.20
2023-05-17T10:49:29.525Z,23.12
2023-05-17T10:50:29.651Z,23.05
2023-05-17T10:51:29.514Z,22.99
2023-05-17T10:52:29.582Z,22.93
2023-05-17T10:53:29.627Z,22.90
2023-05-17T10:54:29.716Z,22.87
2023-05-17T10:55:29.803Z,22.83
2023-05-17T10:56:30.372Z,22.78
2023-05-17T10:57:33.143Z,22.75
2023-05-17T10:58:30.898Z,22.72
2023-05-17T10:59:29.936Z,22.71
2023-05-17T11:00:30.183Z,22.67
2023-05-17T11:01:30.009Z,22.64
2023-05-17T11:02:30.120Z,22.62
2023-05-17T11:03:30.136Z,22.58
2023-05-17T11:04:30.086Z,22.57
2023-05-17T11:05:30.348Z,22.57
2023-05-17T11:06:30.198Z,22.57
2023-05-17T11:07:30.130Z,22.56
2023-05-17T11:08:30.403Z,22.54
2023-05-17T11:09:30.214Z,22.51
2023-05-17T11:10:30.526Z,22.51
2023-05-17T11:11:30.292Z,22.48
2023-05-17T11:12:32.791Z,22.45
2023-05-17T11:13:30.398Z,22.44
2023-05-17T11:14:31.200Z,22.42
2023-05-17T11:15:30.664Z,22.42
2023-05-17T11:16:30.490Z,22.41
2023-05-17T11:17:30.516Z,22.39
2023-05-17T11:18:33.205Z,22.37
2023-05-17T11:19:30.634Z,22.35
2023-05-17T11:20:31.457Z,22.35
2023-05-17T11:21:30.629Z,22.34
2023-05-17T11:22:30.629Z,22.34
2023-05-17T11:23:30.919Z,22.31
2023-05-17T11:24:30.690Z,22.30
2023-05-17T11:25:30.788Z,22.36
2023-05-17T11:26:30.865Z,22.40
2023-05-17T11:27:30.944Z,22.45
2023-05-17T11:28:31.400Z,22.50
2023-05-17T11:29:31.080Z,22.55
2023-05-17T11:30:31.288Z,22.59
2023-05-17T11:31:31.211Z,22.64
2023-05-17T11:32:31.274Z,22.72
2023-05-17T11:33:33.949Z,22.80
2023-05-17T11:34:31.359Z,22.85
2023-05-17T11:35:31.342Z,22.90
2023-05-17T11:36:31.358Z,22.95
2023-05-17T11:37:31.407Z,22.99
2023-05-17T11:38:31.917Z,23.03
2023-05-17T11:39:31.455Z,23.07
2023-05-17T11:40:31.673Z,23.10
2023-05-17T11:41:31.441Z,23.13
2023-05-17T11:42:31.509Z,23.17
2023-05-17T11:43:31.570Z,23.19
2023-05-17T11:44:31.560Z,23.22
2023-05-17T11:45:31.541Z,23.24
2023-05-17T11:46:31.560Z,23.26
2023-05-17T11:47:31.742Z,23.27
2023-05-17T11:48:31.688Z,23.30
2023-05-17T11:49:35.954Z,23.31
2023-05-17T11:50:31.627Z,23.31
2023-05-17T11:51:31.665Z,23.33
2023-05-17T11:52:31.669Z,23.35
2023-05-17T11:53:31.920Z,23.35
2023-05-17T11:54:31.690Z,23.37
2023-05-17T11:55:31.670Z,23.38
2023-05-17T11:56:42.253Z,23.38
2023-05-17T11:57:32.749Z,23.38
2023-05-17T11:58:31.745Z,23.39
2023-05-17T11:59:31.789Z,23.40
2023-05-17T12:00:31.854Z,23.39
2023-05-17T12:01:31.802Z,23.38
2023-05-17T12:02:31.911Z,23.37
2023-05-17T12:03:31.843Z,23.38
2023-05-17T12:04:33.285Z,23.39
2023-05-17T12:05:31.871Z,23.41
2023-05-17T12:06:31.881Z,23.40
2023-05-17T12:07:31.882Z,23.40
2023-05-17T12:08:31.936Z,23.41
2023-05-17T12:09:31.946Z,23.42
2023-05-17T12:10:34.380Z,23.43
2023-05-17T12:11:31.932Z,23.44
2023-05-17T12:12:31.972Z,23.44
2023-05-17T12:13:31.987Z,23.44
2023-05-17T12:14:32.002Z,23.45
2023-05-17T12:15:31.994Z,23.47
2023-05-17T12:16:32.062Z,23.47
2023-05-17T12:17:32.024Z,23.48
2023-05-17T12:18:32.145Z,23.48
2023-05-17T12:19:32.173Z,23.49
2023-05-17T12:20:32.366Z,23.50
2023-05-17T12:21:32.115Z,23.50
2023-05-17T12:22:32.109Z,23.51
2023-05-17T12:23:32.151Z,23.53
2023-05-17T12:24:32.199Z,23.53
2023-05-17T12:25:32.198Z,23.53
2023-05-17T12:26:32.176Z,23.55
2023-05-17T12:27:32.208Z,23.55
2023-05-17T12:28:32.215Z,23.56
2023-05-17T12:29:32.255Z,23.57
2023-05-17T12:30:32.253Z,23.56
2023-05-17T12:31:32.238Z,23.57
2023-05-17T12:32:32.378Z,23.57
2023-05-17T12:33:33.002Z,23.58
2023-05-17T12:34:32.290Z,23.58
2023-05-17T12:35:32.326Z,23.58
2023-05-17T12:36:32.356Z,23.58
2023-05-17T12:37:32.371Z,23.59
2023-05-17T12:38:32.429Z,23.58
2023-05-17T12:39:32.382Z,23.58
2023-05-17T12:40:32.429Z,23.59
2023-05-17T12:41:32.470Z,23.59
2023-05-17T12:42:32.451Z,23.57
2023-05-17T12:43:32.460Z,23.58
2023-05-17T12:44:32.483Z,23.58
2023-05-17T12:45:32.512Z,23.55
2023-05-17T12:46:32.499Z,23.53
2023-05-17T12:47:32.585Z,23.53
2023-05-17T12:48:32.586Z,23.50
2023-05-17T12:49:32.594Z,23.45
2023-05-17T12:50:32.581Z,23.40
2023-05-17T12:51:32.591Z,23.39
2023-05-17T12:52:32.597Z,23.38
2023-05-17T12:53:32.613Z,23.39